createdAt,value
2019-04-22T00:01:24.787Z,94.80
2019-04-22T00:03:56.525Z,94.80
2019-04-22T00:06:44.279Z,94.60
2019-04-22T00:09:19.214Z,94.70
2019-04-22T00:11:59.302Z,94.90
2019-04-22T00:14:11.910Z,94.80
2019-04-22T00:16:51.830Z,94.80
2019-04-22T00:21:55.757Z,94.50
2019-04-22T00:24:27.602Z,94.30
2019-04-22T00:26:59.958Z,94.70
2019-04-22T00:32:11.385Z,94.80
2019-04-22T00:34:48.557Z,94.80
2019-04-22T00:37:26.739Z,95.10
2019-04-22T00:39:55.077Z,95.40
2019-04-22T00:42:28.839Z,95.70
2019-04-22T00:45:00.722Z,96.00
2019-04-22T00:47:29.223Z,96.30
2019-04-22T00:50:14.482Z,96.70
2019-04-22T00:52:28.256Z,97.00
2019-04-22T00:55:06.106Z,97.40
2019-04-22T00:57:35.178Z,97.90
2019-04-22T01:00:05.619Z,98.40
2019-04-22T01:02:34.239Z,98.70
2019-04-22T01:05:07.699Z,99.80
2019-04-22T01:07:40.794Z,99.90
2019-04-22T01:10:11.732Z,99.90
2019-04-22T01:12:41.435Z,99.90
2019-04-22T01:15:17.459Z,99.90
2019-04-22T01:17:45.394Z,99.90
2019-04-22T01:20:41.779Z,99.90
2019-04-22T01:22:46.163Z,99.90
2019-04-22T01:25:14.369Z,99.90
2019-04-22T01:27:40.231Z,99.90
2019-04-22T01:30:10.908Z,99.90
2019-04-22T01:32:35.006Z,99.90
2019-04-22T01:35:14.364Z,99.90
2019-04-22T01:37:50.863Z,99.90
2019-04-22T01:40:33.172Z,99.90
2019-04-22T01:43:07.003Z,99.90
2019-04-22T01:45:35.668Z,99.90
2019-04-22T01:48:02.898Z,99.90
2019-04-22T01:50:39.850Z,99.90
2019-04-22T01:53:11.776Z,99.90
2019-04-22T01:55:38.840Z,99.90
2019-04-22T01:58:08.406Z,99.90
2019-04-22T02:00:51.487Z,99.90
2019-04-22T02:03:17.769Z,99.90
2019-04-22T02:05:44.164Z,99.90
2019-04-22T02:08:25.511Z,99.90
2019-04-22T02:10:54.824Z,99.90
2019-04-22T02:13:25.141Z,99.90
2019-04-22T02:15:52.699Z,99.90
2019-04-22T02:18:26.288Z,99.90
2019-04-22T02:20:49.587Z,99.90
2019-04-22T02:26:09.347Z,99.90
2019-04-22T02:28:45.787Z,99.90
2019-04-22T02:44:08.160Z,99.90
2019-04-22T02:46:40.737Z,99.90
2019-04-22T02:56:31.487Z,99.90
2019-04-22T02:59:04.233Z,99.90
2019-04-22T03:01:29.880Z,99.90
2019-04-22T03:04:06.615Z,99.90
2019-04-22T03:09:10.136Z,99.90
2019-04-22T03:11:42.037Z,99.90
2019-04-22T03:16:39.358Z,99.90
2019-04-22T03:19:17.745Z,99.90
2019-04-22T03:24:20.249Z,99.90
2019-04-22T03:29:39.118Z,99.90
2019-04-22T03:35:09.668Z,99.90
2019-04-22T03:39:38.491Z,99.90
2019-04-22T03:49:37.199Z,99.90
2019-04-22T03:52:16.293Z,99.90
2019-04-22T03:54:39.155Z,99.90
2019-04-22T03:59:41.527Z,99.90
2019-04-22T04:02:16.168Z,99.90
2019-04-22T04:09:40.610Z,99.90
2019-04-22T04:14:54.895Z,99.90
2019-04-22T04:22:30.459Z,99.90
2019-04-22T04:25:24.772Z,99.90
2019-04-22T04:27:43.542Z,99.90
2019-04-22T04:30:05.656Z,99.90
2019-04-22T04:37:40.975Z,99.90
2019-04-22T04:40:05.135Z,99.90
2019-04-22T04:45:29.826Z,99.90
2019-04-22T04:47:41.357Z,99.90
2019-04-22T04:53:01.109Z,99.90
2019-04-22T04:55:18.033Z,99.90
2019-04-22T04:57:52.487Z,99.90
2019-04-22T05:02:44.776Z,99.90
2019-04-22T05:05:12.570Z,99.90
2019-04-22T05:07:40.407Z,99.90
2019-04-22T05:12:53.091Z,99.90
2019-04-22T05:25:19.041Z,99.90
2019-04-22T05:27:47.365Z,99.90
2019-04-22T05:32:52.266Z,99.90
2019-04-22T05:35:20.756Z,99.90
2019-04-22T05:40:25.920Z,99.90
2019-04-22T05:42:49.671Z,99.90
2019-04-22T05:47:59.276Z,99.90
2019-04-22T05:50:22.888Z,99.90
2019-04-22T05:52:57.316Z,99.90
2019-04-22T05:55:36.309Z,99.90
2019-04-22T05:58:02.820Z,99.90
2019-04-22T06:03:21.093Z,99.90
2019-04-22T06:05:43.863Z,99.90
2019-04-22T06:08:10.618Z,99.90
2019-04-22T06:10:50.399Z,99.90
2019-04-22T06:13:12.480Z,99.90
2019-04-22T06:15:40.352Z,99.90
2019-04-22T06:18:25.456Z,99.90
2019-04-22T06:21:01.397Z,99.90
2019-04-22T06:23:25.690Z,99.90
2019-04-22T06:26:04.966Z,99.90
2019-04-22T06:33:29.530Z,99.90
2019-04-22T06:36:03.402Z,99.90
2019-04-22T06:41:09.306Z,99.90
2019-04-22T06:43:34.947Z,99.90
2019-04-22T06:46:13.049Z,99.90
2019-04-22T06:48:37.417Z,99.90
2019-04-22T06:51:06.819Z,99.90
2019-04-22T06:56:11.422Z,99.90
2019-04-22T06:58:39.906Z,99.90
2019-04-22T07:01:19.621Z,99.90
2019-04-22T07:06:23.994Z,99.90
2019-04-22T07:11:11.432Z,99.90
2019-04-22T07:13:51.748Z,99.90
2019-04-22T07:18:50.734Z,99.90
2019-04-22T07:21:22.203Z,99.90
2019-04-22T07:24:02.762Z,99.90
2019-04-22T07:26:21.945Z,99.90
2019-04-22T07:28:55.116Z,99.90
2019-04-22T07:31:30.662Z,99.90
2019-04-22T07:33:58.295Z,99.60
2019-04-22T07:39:05.738Z,99.00
2019-04-22T07:41:31.809Z,98.20
2019-04-22T07:51:36.377Z,95.60
2019-04-22T07:54:06.509Z,95.20
2019-04-22T07:56:40.896Z,95.00
2019-04-22T07:59:13.943Z,95.00
2019-04-22T08:01:44.824Z,95.00
2019-04-22T08:04:24.242Z,93.90
2019-04-22T08:09:24.577Z,93.40
2019-04-22T08:11:52.466Z,92.10
2019-04-22T08:14:24.256Z,92.30
2019-04-22T08:16:51.602Z,92.80
2019-04-22T08:19:33.139Z,92.60
2019-04-22T08:21:52.167Z,91.30
2019-04-22T08:24:30.570Z,90.20
2019-04-22T08:26:58.161Z,89.40
2019-04-22T08:29:40.208Z,90.00
2019-04-22T08:32:01.196Z,89.10
2019-04-22T08:34:31.008Z,88.00
2019-04-22T08:39:33.209Z,87.00
2019-04-22T08:42:16.235Z,89.90
2019-04-22T08:45:05.828Z,86.60
2019-04-22T08:49:50.503Z,87.30
2019-04-22T08:52:16.319Z,85.70
2019-04-22T08:54:49.049Z,84.70
2019-04-22T08:57:24.191Z,86.00
2019-04-22T08:59:50.055Z,85.70
2019-04-22T09:02:19.824Z,86.90
2019-04-22T09:04:52.144Z,82.90
2019-04-22T09:09:50.681Z,82.20
2019-04-22T09:12:34.655Z,79.40
2019-04-22T09:14:49.444Z,78.60
2019-04-22T09:17:40.319Z,76.20
2019-04-22T09:20:03.272Z,76.10
2019-04-22T09:22:26.334Z,75.60
2019-04-22T09:24:57.245Z,74.80
2019-04-22T09:30:01.655Z,72.30
2019-04-22T09:32:34.425Z,72.40
2019-04-22T09:35:04.375Z,71.50
2019-04-22T09:37:39.319Z,72.20
2019-04-22T09:40:13.946Z,68.10
2019-04-22T09:42:39.673Z,69.00
2019-04-22T09:45:21.407Z,65.50
2019-04-22T09:47:53.654Z,66.40
2019-04-22T09:50:15.344Z,65.80
2019-04-22T09:52:51.462Z,66.70
2019-04-22T09:55:19.728Z,67.20
2019-04-22T09:57:47.096Z,65.00
2019-04-22T10:00:14.756Z,62.40
2019-04-22T10:02:55.859Z,64.50
2019-04-22T10:05:23.833Z,62.50
2019-04-22T10:07:55.689Z,61.90
2019-04-22T10:10:28.162Z,61.80
2019-04-22T10:13:00.248Z,58.80
2019-04-22T10:15:25.225Z,58.70
2019-04-22T10:17:57.954Z,57.80
2019-04-22T10:20:36.258Z,58.30
2019-04-22T10:22:57.469Z,60.00
2019-04-22T10:25:36.403Z,58.70
2019-04-22T10:28:08.954Z,54.60
2019-04-22T10:30:46.231Z,52.50
2019-04-22T10:33:04.620Z,54.10
2019-04-22T10:35:19.188Z,52.50
2019-04-22T10:37:46.401Z,53.60
2019-04-22T10:40:21.755Z,55.20
2019-04-22T10:42:51.571Z,53.10
2019-04-22T10:45:21.965Z,50.60
2019-04-22T10:47:52.252Z,51.30
2019-04-22T10:50:25.098Z,50.50
2019-04-22T10:52:55.262Z,48.90
2019-04-22T10:55:25.420Z,49.50
2019-04-22T10:57:55.245Z,48.80
2019-04-22T11:00:25.079Z,50.30
2019-04-22T11:02:55.909Z,49.60
2019-04-22T11:05:28.134Z,48.20
2019-04-22T11:08:02.767Z,48.30
2019-04-22T11:10:42.544Z,49.20
2019-04-22T11:13:02.932Z,47.70
2019-04-22T11:15:32.934Z,47.80
2019-04-22T11:18:02.985Z,46.90
2019-04-22T11:20:33.720Z,46.70
2019-04-22T11:23:04.577Z,47.00
2019-04-22T11:25:36.023Z,47.20
2019-04-22T11:28:07.193Z,48.10
2019-04-22T11:30:38.635Z,47.40
2019-04-22T11:33:08.736Z,47.70
2019-04-22T11:35:39.609Z,47.80
2019-04-22T11:38:10.675Z,49.20
2019-04-22T11:40:47.495Z,47.50
2019-04-22T11:43:12.408Z,48.30
2019-04-22T11:45:42.616Z,48.30
2019-04-22T11:48:13.247Z,47.80
2019-04-22T11:50:43.964Z,48.40
2019-04-22T11:53:13.817Z,48.20
2019-04-22T11:55:44.600Z,48.30
2019-04-22T11:58:14.886Z,48.10
2019-04-22T12:00:45.143Z,48.70
2019-04-22T12:03:14.842Z,50.20
2019-04-22T12:05:45.975Z,49.00
2019-04-22T12:08:15.645Z,47.90
2019-04-22T12:10:51.598Z,46.40
2019-04-22T12:13:17.781Z,46.90
2019-04-22T12:15:49.018Z,47.00
2019-04-22T12:18:19.541Z,47.20
2019-04-22T12:20:49.152Z,46.70
2019-04-22T12:23:18.993Z,46.60
2019-04-22T12:25:57.113Z,46.80
2019-04-22T12:28:21.150Z,46.90
2019-04-22T12:30:51.239Z,46.80
2019-04-22T12:33:21.253Z,46.80
2019-04-22T12:35:50.832Z,46.90
2019-04-22T12:38:21.981Z,46.70
2019-04-22T12:40:57.418Z,46.60
2019-04-22T12:43:25.698Z,47.20
2019-04-22T12:45:54.435Z,47.10
2019-04-22T12:48:25.421Z,46.50
2019-04-22T12:50:58.037Z,45.80
2019-04-22T12:53:28.063Z,46.90
2019-04-22T12:55:59.337Z,45.60
2019-04-22T12:58:29.827Z,45.80
2019-04-22T13:01:01.046Z,45.30
2019-04-22T13:03:31.968Z,44.80
2019-04-22T13:06:01.772Z,45.70
2019-04-22T13:08:31.723Z,45.50
2019-04-22T13:11:08.725Z,45.00
2019-04-22T13:13:34.438Z,45.30
2019-04-22T13:16:04.707Z,44.70
2019-04-22T13:18:42.039Z,43.60
2019-04-22T13:21:06.543Z,43.70
2019-04-22T13:23:36.918Z,44.50
2019-04-22T13:26:07.440Z,44.30
2019-04-22T13:28:37.025Z,45.30
2019-04-22T13:31:07.776Z,45.30
2019-04-22T13:33:38.770Z,44.80
2019-04-22T13:36:08.365Z,45.00
2019-04-22T13:38:38.739Z,45.00
2019-04-22T13:41:21.102Z,44.50
2019-04-22T13:43:41.012Z,43.70
2019-04-22T13:46:12.289Z,44.40
2019-04-22T13:49:05.970Z,45.30
2019-04-22T13:51:48.848Z,44.20
2019-04-22T13:54:42.386Z,44.40
2019-04-22T13:56:38.691Z,45.10
2019-04-22T13:58:58.993Z,44.10
2019-04-22T14:01:20.556Z,44.10
2019-04-22T14:03:58.809Z,44.20
2019-04-22T14:06:29.129Z,44.30
2019-04-22T14:08:59.129Z,44.40
2019-04-22T14:11:39.064Z,44.80
2019-04-22T14:14:00.862Z,44.80
2019-04-22T14:16:31.149Z,45.30
2019-04-22T14:19:02.026Z,45.00
2019-04-22T14:21:32.658Z,44.00
2019-04-22T14:24:02.749Z,44.00
2019-04-22T14:26:46.850Z,44.30
2019-04-22T14:29:04.129Z,44.70
2019-04-22T14:31:34.200Z,45.10
2019-04-22T14:34:05.872Z,43.40
2019-04-22T14:36:35.303Z,43.90
2019-04-22T14:39:08.153Z,44.10
2019-04-22T14:41:55.396Z,44.40
2019-04-22T14:47:10.845Z,44.00
2019-04-22T14:49:37.097Z,44.40
2019-04-22T14:52:05.282Z,43.80
2019-04-22T14:54:33.809Z,44.30
2019-04-22T14:56:46.728Z,44.20
2019-04-22T14:59:16.719Z,45.50
2019-04-22T15:01:47.574Z,45.40
2019-04-22T15:04:17.535Z,45.60
2019-04-22T15:06:50.119Z,45.30
2019-04-22T15:09:19.702Z,45.60
2019-04-22T15:11:58.208Z,44.40
2019-04-22T15:14:21.598Z,44.60
2019-04-22T15:16:55.045Z,44.30
2019-04-22T15:19:27.590Z,44.60
2019-04-22T15:21:58.646Z,45.10
2019-04-22T15:24:29.435Z,45.40
2019-04-22T15:27:00.651Z,45.50
2019-04-22T15:29:31.593Z,45.30
2019-04-22T15:32:01.427Z,45.30
2019-04-22T15:34:32.561Z,45.70
2019-04-22T15:37:02.403Z,45.30
2019-04-22T15:39:31.990Z,45.30
2019-04-22T15:42:11.602Z,45.70
2019-04-22T15:44:33.840Z,45.40
2019-04-22T15:47:04.877Z,45.00
2019-04-22T15:49:35.741Z,45.30
2019-04-22T15:52:06.619Z,45.90
2019-04-22T15:54:37.648Z,45.30
2019-04-22T15:57:08.696Z,45.90
2019-04-22T15:59:54.002Z,45.00
2019-04-22T16:02:10.074Z,44.60
2019-04-22T16:04:42.373Z,44.90
2019-04-22T16:07:12.816Z,44.40
2019-04-22T16:09:43.518Z,44.00
2019-04-22T16:12:21.555Z,44.60
2019-04-22T16:14:49.461Z,44.30
2019-04-22T16:17:16.800Z,44.50
2019-04-22T16:19:46.687Z,44.60
2019-04-22T16:22:19.085Z,44.50
2019-04-22T16:25:07.010Z,44.50
2019-04-22T16:27:36.784Z,44.70
2019-04-22T16:30:07.682Z,45.30
2019-04-22T16:32:37.423Z,46.50
2019-04-22T16:35:08.743Z,46.60
2019-04-22T16:37:38.960Z,47.10
2019-04-22T16:40:09.323Z,47.20
2019-04-22T16:42:45.826Z,47.00
2019-04-22T16:45:11.629Z,46.80
2019-04-22T16:47:41.808Z,46.80
2019-04-22T16:50:11.626Z,46.50
2019-04-22T16:52:41.832Z,46.20
2019-04-22T16:55:12.824Z,45.80
2019-04-22T16:57:43.982Z,45.70
2019-04-22T17:00:16.409Z,45.90
2019-04-22T17:03:06.787Z,46.20
2019-04-22T17:05:53.735Z,46.10
2019-04-22T17:08:24.606Z,45.80
2019-04-22T17:10:55.658Z,45.90
2019-04-22T17:13:30.294Z,46.40
2019-04-22T17:16:00.499Z,46.30
2019-04-22T17:18:29.025Z,46.40
2019-04-22T17:20:58.792Z,46.00
2019-04-22T17:23:29.558Z,46.30
2019-04-22T17:26:00.668Z,46.50
2019-04-22T17:28:31.308Z,46.30
2019-04-22T17:31:01.914Z,46.30
2019-04-22T17:33:32.790Z,46.50
2019-04-22T17:36:03.327Z,46.40
2019-04-22T17:38:42.754Z,46.50
2019-04-22T17:41:16.200Z,46.80
2019-04-22T17:44:02.137Z,46.90
2019-04-22T17:46:30.500Z,46.80
2019-04-22T17:49:06.046Z,46.80
2019-04-22T17:51:36.439Z,46.70
2019-04-22T17:54:08.275Z,46.90
2019-04-22T17:56:42.232Z,47.10
2019-04-22T17:59:12.263Z,47.20
2019-04-22T18:01:40.199Z,47.40
2019-04-22T18:03:57.399Z,47.80
2019-04-22T18:06:48.953Z,48.00
2019-04-22T18:09:12.844Z,48.00
2019-04-22T18:11:48.261Z,48.70
2019-04-22T18:14:44.893Z,48.40
2019-04-22T18:16:45.902Z,48.80
2019-04-22T18:19:19.343Z,49.10
2019-04-22T18:21:46.205Z,49.50
2019-04-22T18:24:11.911Z,49.90
2019-04-22T18:26:55.633Z,50.00
2019-04-22T18:29:25.522Z,50.00
2019-04-22T18:31:48.985Z,50.60
2019-04-22T18:34:23.632Z,50.10
2019-04-22T18:36:58.945Z,50.40
2019-04-22T18:39:40.524Z,50.80
2019-04-22T18:42:03.148Z,51.00
2019-04-22T18:44:42.354Z,50.70
2019-04-22T18:47:10.554Z,50.90
2019-04-22T18:49:41.783Z,50.70
2019-04-22T18:52:21.354Z,50.60
2019-04-22T18:55:02.571Z,50.50
2019-04-22T18:57:35.790Z,50.40
2019-04-22T18:59:53.863Z,50.70
2019-04-22T19:02:24.694Z,50.40
2019-04-22T19:05:01.074Z,50.20
2019-04-22T19:07:49.757Z,50.00
2019-04-22T19:10:17.316Z,49.70
2019-04-22T19:12:58.552Z,49.60
2019-04-22T19:15:19.168Z,49.50
2019-04-22T19:17:54.376Z,49.20
2019-04-22T19:20:27.191Z,48.90
2019-04-22T19:22:57.090Z,48.40
2019-04-22T19:25:17.383Z,48.50
2019-04-22T19:27:53.601Z,48.10
2019-04-22T19:30:30.247Z,47.80
2019-04-22T19:33:06.338Z,47.70
2019-04-22T19:35:30.202Z,47.50
2019-04-22T19:37:58.731Z,47.40
2019-04-22T19:40:47.819Z,47.30
2019-04-22T19:43:09.806Z,46.90
2019-04-22T19:45:44.371Z,46.90
2019-04-22T19:48:21.832Z,46.90
2019-04-22T19:50:54.342Z,46.80
2019-04-22T19:53:22.687Z,46.90
2019-04-22T19:55:46.525Z,46.80
2019-04-22T19:58:22.001Z,46.90
2019-04-22T20:01:02.366Z,47.10
2019-04-22T20:03:49.795Z,47.20
2019-04-22T20:06:33.901Z,47.40
2019-04-22T20:09:05.717Z,47.30
2019-04-22T20:11:38.707Z,47.40
2019-04-22T20:14:12.049Z,47.60
2019-04-22T20:16:37.519Z,47.70
2019-04-22T20:19:19.129Z,47.90
2019-04-22T20:21:49.362Z,48.00
2019-04-22T20:24:05.720Z,48.20
2019-04-22T20:26:51.231Z,48.20
2019-04-22T20:29:25.747Z,48.40
2019-04-22T20:31:54.579Z,48.20
2019-04-22T20:34:24.079Z,48.20
2019-04-22T20:37:04.710Z,48.20
2019-04-22T20:39:28.381Z,48.30
2019-04-22T20:41:57.646Z,48.40
2019-04-22T20:44:30.174Z,48.10
2019-04-22T20:46:56.132Z,48.20
2019-04-22T20:49:31.075Z,48.50
2019-04-22T20:52:23.587Z,48.60
2019-04-22T20:54:32.561Z,48.40
2019-04-22T20:56:55.329Z,48.40
2019-04-22T20:59:34.631Z,48.50
2019-04-22T21:02:05.156Z,48.70
2019-04-22T21:04:27.785Z,48.70
2019-04-22T21:07:03.740Z,48.70
2019-04-22T21:09:38.170Z,49.00
2019-04-22T21:12:07.689Z,49.10
2019-04-22T21:14:44.076Z,49.50
2019-04-22T21:17:13.618Z,49.40
2019-04-22T21:19:54.651Z,49.80
2019-04-22T21:22:16.003Z,50.00
2019-04-22T21:24:46.065Z,50.60
2019-04-22T21:27:23.732Z,50.40
2019-04-22T21:29:48.348Z,50.50
2019-04-22T21:32:24.021Z,50.70
2019-04-22T21:34:59.639Z,51.10
2019-04-22T21:37:25.187Z,51.40
2019-04-22T21:39:51.879Z,51.70
2019-04-22T21:42:26.551Z,52.00
2019-04-22T21:44:55.747Z,52.30
2019-04-22T21:47:35.326Z,52.60
2019-04-22T21:50:21.354Z,53.10
2019-04-22T21:52:35.838Z,53.40
2019-04-22T21:55:10.527Z,53.70
2019-04-22T21:57:57.350Z,54.00
2019-04-22T22:00:36.626Z,54.20
2019-04-22T22:02:58.541Z,54.50
2019-04-22T22:05:27.985Z,54.90
2019-04-22T22:07:53.413Z,55.30
2019-04-22T22:10:34.325Z,55.70
2019-04-22T22:13:06.684Z,56.20
2019-04-22T22:15:40.335Z,56.60
2019-04-22T22:18:05.188Z,56.70
2019-04-22T22:20:43.221Z,57.20
2019-04-22T22:23:22.250Z,57.50
2019-04-22T22:25:38.864Z,57.80
2019-04-22T22:28:31.393Z,58.20
2019-04-22T22:33:18.754Z,58.70
2019-04-22T22:35:45.560Z,59.00
2019-04-22T22:38:18.753Z,60.00
2019-04-22T22:40:34.024Z,59.50
2019-04-22T22:43:11.958Z,59.80
2019-04-22T22:45:39.714Z,60.10
2019-04-22T22:48:28.206Z,60.60
2019-04-22T22:50:50.741Z,60.90
2019-04-22T22:53:34.032Z,61.40
2019-04-22T22:55:57.700Z,61.60
2019-04-22T22:58:28.045Z,62.00
2019-04-22T23:00:57.912Z,62.40
2019-04-22T23:03:46.041Z,62.70
2019-04-22T23:06:04.774Z,63.20
2019-04-22T23:08:44.715Z,63.60
2019-04-22T23:11:05.623Z,64.20
2019-04-22T23:13:38.956Z,64.20
2019-04-22T23:16:00.873Z,64.40
2019-04-22T23:18:19.749Z,64.50
2019-04-22T23:20:51.806Z,64.90
2019-04-22T23:23:37.902Z,64.90
2019-04-22T23:26:10.395Z,65.00
2019-04-22T23:28:43.091Z,65.20
2019-04-22T23:31:09.574Z,65.60
2019-04-22T23:33:54.671Z,66.10
2019-04-22T23:36:30.540Z,66.10
2019-04-22T23:39:10.950Z,66.40
2019-04-22T23:41:50.963Z,67.20
2019-04-22T23:44:17.781Z,66.60
2019-04-22T23:46:55.348Z,66.90
2019-04-22T23:49:26.659Z,66.70
2019-04-22T23:52:09.032Z,67.10
2019-04-22T23:54:39.051Z,67.10
2019-04-22T23:57:00.263Z,67.70
2019-04-22T23:59:44.919Z,67.50
